Capulin, Colorado
Current Conditions -  °F | °C
As of 2:52 AM on Thursday 27 Nov 2014 (Local Time) from KALS Reporting Station
Clear Clear  
Wind Chill:   Ceiling: Unl
Heat Index: 16°   Visibility: 10mi
Dew Point: 12°   Wind: 6mph
Humidity: 84%   Direction: 300°WNW
Pressure: 30.49"   Gusts: NA
Location:  37.28°N, 106.11°W
Report Text: KALS 270952Z AUTO 30005KT 10SM CLR M09/M11 A3049 RMK AO2 SLP330 T10891111
Loading
Personal Weather Stations






























Interactive Weather Map New forecast layout! Learn more

10-Day Weather Forecast

Advertisements
Track Severe Weather on mobile